Time;durP1;ratioP1;P1;durP2;ratioP2;P2;SDS_P1;SDS_P2;PMS_P1;PMS_P2;Temp;Humidity;BMP_temperature;BMP_pressure;BME280_temperature;BME280_humidity;BME280_pressure;Samples;Min_cycle;Max_cycle;Signal;HPM_P1;HPM_P2
2023/04/01 00:02:00;;;;;;;10.90;8.80;;;;;;;6.27;100.00;96183.31;110658;1242;58873;-76
2023/04/01 00:04:29;;;;;;;11.70;9.50;;;;;;;6.30;100.00;96188.30;110686;1243;58872;-76
2023/04/01 00:06:59;;;;;;;13.40;10.60;;;;;;;6.31;100.00;96184.72;110687;1241;70503;-76
2023/04/01 00:09:28;;;;;;;14.10;9.80;;;;;;;6.34;100.00;96181.10;110602;1242;69787;-76
2023/04/01 00:11:58;;;;;;;14.30;11.70;;;;;;;6.35;100.00;96169.77;110627;1241;69855;-76
2023/04/01 00:14:28;;;;;;;14.70;10.90;;;;;;;6.35;100.00;96164.50;110670;1241;59712;-76
2023/04/01 00:16:58;;;;;;;15.50;11.00;;;;;;;6.36;100.00;96163.08;110385;1242;60120;-76
2023/04/01 00:19:28;;;;;;;15.10;10.90;;;;;;;6.37;100.00;96159.92;110690;1240;70316;-75
2023/04/01 00:21:58;;;;;;;13.50;10.90;;;;;;;6.35;100.00;96156.41;110690;1242;68308;-75
2023/04/01 00:24:28;;;;;;;14.70;11.10;;;;;;;6.34;100.00;96154.96;110622;1241;68507;-76
2023/04/01 00:26:59;;;;;;;15.00;10.70;;;;;;;6.32;100.00;96144.31;110694;1240;59667;-75
2023/04/01 00:29:30;;;;;;;13.90;10.90;;;;;;;6.32;100.00;96147.65;110678;1242;59687;-75
2023/04/01 00:31:59;;;;;;;12.80;10.40;;;;;;;6.32;100.00;96146.63;110606;1243;71278;-76
2023/04/01 00:34:29;;;;;;;13.70;10.30;;;;;;;6.32;100.00;96146.91;110583;1242;69826;-76
2023/04/01 00:37:00;;;;;;;12.40;9.80;;;;;;;6.33;100.00;96151.71;110449;1241;68496;-77
2023/04/01 00:39:31;;;;;;;12.10;9.30;;;;;;;6.33;100.00;96152.40;110429;1241;59738;-77
2023/04/01 00:42:02;;;;;;;11.90;9.60;;;;;;;6.33;100.00;96158.10;110515;1241;59737;-77
2023/04/01 00:44:34;;;;;;;12.60;10.00;;;;;;;6.34;100.00;96153.05;110448;1242;71397;-75
2023/04/01 00:47:04;;;;;;;13.00;9.90;;;;;;;6.34;100.00;96146.83;110446;1241;69817;-76
2023/04/01 00:49:40;;;;;;;13.00;10.90;;;;;;;6.32;100.00;96141.55;110706;1242;68100;-76
2023/04/01 00:52:14;;;;;;;15.00;11.90;;;;;;;6.30;100.00;96130.52;110717;1242;59750;-75
2023/04/01 00:54:48;;;;;;;15.20;12.20;;;;;;;6.27;100.00;96124.69;110314;1245;59701;-76
2023/04/01 00:57:46;;;;;;;14.20;11.10;;;;;;;6.25;100.00;96117.24;110634;1242;72013;-77
2023/04/01 01:00:18;;;;;;;14.20;11.30;;;;;;;6.24;100.00;96111.73;110631;1242;69151;-75
2023/04/01 01:02:51;;;;;;;12.90;10.10;;;;;;;6.23;100.00;96110.58;110314;1245;69103;-75
2023/04/01 01:05:34;;;;;;;13.00;10.90;;;;;;;6.23;100.00;96112.50;110355;1242;59667;-75
2023/04/01 01:08:52;;;;;;;16.90;12.90;;;;;;;6.22;100.00;96120.06;110634;1248;59707;-75
2023/04/01 01:11:35;;;;;;;15.30;11.30;;;;;;;6.14;100.00;96111.61;110376;1244;71303;-76
2023/04/01 01:14:34;;;;;;;13.50;11.30;;;;;;;6.10;100.00;96100.17;110342;1245;69874;-76
2023/04/01 01:17:25;;;;;;;16.50;11.60;;;;;;;6.09;100.00;96081.02;110555;1241;68870;-75
2023/04/01 01:20:29;;;;;;;13.80;10.80;;;;;;;6.12;100.00;96083.58;110645;1242;59676;-76
2023/04/01 01:23:20;;;;;;;11.90;9.10;;;;;;;6.15;100.00;96078.35;110655;1242;60134;-76
2023/04/01 01:26:08;;;;;;;11.20;9.00;;;;;;;6.19;100.00;96075.81;110340;1241;71458;-75
2023/04/01 01:28:51;;;;;;;15.40;11.30;;;;;;;6.23;100.00;96082.26;110369;1244;69490;-76
2023/04/01 01:31:35;;;;;;;12.20;9.80;;;;;;;6.25;100.00;96077.97;110350;1242;68545;-76
2023/04/01 01:34:22;;;;;;;12.70;10.10;;;;;;;6.27;100.00;96077.07;110574;1241;59734;-76
2023/04/01 01:36:57;;;;;;;13.10;10.00;;;;;;;6.29;100.00;96074.52;110426;1242;59722;-76
2023/04/01 01:39:32;;;;;;;13.40;9.90;;;;;;;6.32;100.00;96071.20;110393;1242;71392;-76
2023/04/01 01:42:07;;;;;;;11.10;9.60;;;;;;;6.34;100.00;96072.23;110412;1240;68336;-75
2023/04/01 01:44:41;;;;;;;13.80;10.30;;;;;;;6.37;100.00;96073.16;110594;1241;68212;-76
2023/04/01 01:47:11;;;;;;;15.40;11.60;;;;;;;6.34;100.00;96071.50;110327;1245;59728;-75
2023/04/01 01:49:41;;;;;;;;;;;;;;;6.25;100.00;96072.58;110394;1241;59663;-75
2023/04/01 01:52:13;;;;;;;16.40;12.90;;;;;;;6.17;100.00;96068.69;110621;1242;71320;-75
2023/04/01 01:54:51;;;;;;;22.50;16.00;;;;;;;6.13;100.00;96069.16;110404;1242;68389;-75
2023/04/01 01:57:36;;;;;;;20.60;15.40;;;;;;;6.09;100.00;96062.72;110334;1243;69292;-75
2023/04/01 02:00:14;;;;;;;19.80;13.60;;;;;;;6.06;100.00;96058.93;110323;1245;59687;-76
2023/04/01 02:02:47;;;;;;;15.10;11.80;;;;;;;6.05;100.00;96063.54;110345;1242;59741;-75
2023/04/01 02:05:24;;;;;;;15.70;12.80;;;;;;;6.03;100.00;96063.17;110610;1242;71437;-75
2023/04/01 02:08:07;;;;;;;15.90;11.90;;;;;;;6.01;100.00;96070.73;110556;1241;69265;-75
2023/04/01 02:10:42;;;;;;;14.30;11.00;;;;;;;6.01;100.00;96071.78;110313;1247;68446;-75
2023/04/01 02:13:58;;;;;;;17.30;12.50;;;;;;;6.03;100.00;96067.67;110371;1243;59688;-75
2023/04/01 02:16:34;;;;;;;16.90;12.60;;;;;;;6.04;100.00;96058.91;110267;1242;59687;-75
2023/04/01 02:19:09;;;;;;;16.90;13.00;;;;;;;6.04;100.00;96058.27;110215;1243;71295;-74
2023/04/01 02:21:42;;;;;;;17.50;13.10;;;;;;;6.02;100.00;96060.80;110222;1243;69155;-74
2023/04/01 02:24:15;;;;;;;17.00;12.40;;;;;;;6.03;100.00;96055.89;110348;1241;69092;-74
2023/04/01 02:26:46;;;;;;;17.10;12.00;;;;;;;6.04;100.00;96054.77;110569;1242;59793;-74
2023/04/01 02:29:18;;;;;;;15.30;11.10;;;;;;;6.05;100.00;96050.89;110546;1240;60056;-74
2023/04/01 02:31:50;;;;;;;16.60;12.30;;;;;;;6.07;100.00;96042.63;110427;1238;71232;-74
2023/04/01 02:34:21;;;;;;;16.20;11.80;;;;;;;6.09;100.00;96037.08;110335;1244;69068;-75
2023/04/01 02:36:53;;;;;;;16.50;11.40;;;;;;;6.11;100.00;96031.21;110546;1242;68498;-74
2023/04/01 02:39:22;;;;;;;14.70;11.30;;;;;;;6.14;100.00;96023.06;110528;1241;59685;-76
2023/04/01 02:41:52;;;;;;;15.10;10.60;;;;;;;6.16;100.00;96024.19;110261;1243;59691;-74
2023/04/01 02:44:21;;;;;;;14.40;9.70;;;;;;;6.17;100.00;96032.73;110536;1242;71279;-75
2023/04/01 02:46:50;;;;;;;12.70;9.80;;;;;;;6.21;100.00;96034.88;110608;1242;69344;-75
2023/04/01 02:49:19;;;;;;;12.10;9.30;;;;;;;6.24;100.00;96036.49;110544;1243;69297;-73
2023/04/01 02:51:49;;;;;;;13.20;10.60;;;;;;;6.27;100.00;96032.98;110489;1244;59751;-75
2023/04/01 02:54:20;;;;;;;12.50;9.70;;;;;;;6.30;100.00;96030.14;110274;1243;59703;-75
2023/04/01 02:56:51;;;;;;;14.00;10.60;;;;;;;6.32;100.00;96037.05;110645;1238;70551;-74
2023/04/01 02:59:20;;;;;;;13.50;10.60;;;;;;;6.34;100.00;96035.55;110358;1243;69278;-75
2023/04/01 03:01:52;;;;;;;12.70;9.90;;;;;;;6.36;100.00;96028.61;110718;1242;69171;-75
2023/04/01 03:04:22;;;;;;;12.10;9.30;;;;;;;6.40;100.00;96027.45;110341;1243;59701;-75
2023/04/01 03:06:52;;;;;;;12.10;9.80;;;;;;;6.45;100.00;96031.77;110633;1241;59686;-75
2023/04/01 03:09:21;;;;;;;12.40;10.30;;;;;;;6.48;100.00;96029.43;110549;1241;70530;-75
2023/04/01 03:11:50;;;;;;;11.00;9.00;;;;;;;6.51;100.00;96026.08;110385;1243;68403;-75
2023/04/01 03:14:20;;;;;;;15.80;11.30;;;;;;;6.52;100.00;96027.05;110532;1241;69569;-75
2023/04/01 03:16:50;;;;;;;16.30;11.60;;;;;;;6.54;100.00;96027.61;110674;1242;59730;-75
2023/04/01 03:19:20;;;;;;;11.60;9.50;;;;;;;6.54;100.00;96024.42;110492;1242;59734;-76
2023/04/01 03:21:50;;;;;;;15.00;11.10;;;;;;;6.58;100.00;96014.95;110465;1238;71538;-75
2023/04/01 03:24:20;;;;;;;13.20;10.70;;;;;;;6.58;100.00;96014.91;110681;1241;68664;-75
2023/04/01 03:26:50;;;;;;;14.20;11.20;;;;;;;6.59;100.00;96013.98;110701;1242;68531;-75
2023/04/01 03:29:21;;;;;;;12.70;11.00;;;;;;;6.59;100.00;96013.31;110477;1238;59794;-75
2023/04/01 03:31:50;;;;;;;13.50;10.20;;;;;;;6.59;100.00;96014.86;110694;1238;59715;-75
2023/04/01 03:34:20;;;;;;;13.80;11.40;;;;;;;6.58;100.00;96017.35;110717;1247;71209;-76
2023/04/01 03:36:49;;;;;;;16.60;11.60;;;;;;;6.58;100.00;96017.89;110520;1241;69198;-75
2023/04/01 03:39:18;;;;;;;13.20;11.10;;;;;;;6.58;100.00;96016.31;110616;1242;69168;-75
2023/04/01 03:41:48;;;;;;;14.80;12.30;;;;;;;6.58;100.00;96009.64;110464;1241;59793;-76
2023/04/01 03:44:18;;;;;;;15.40;11.70;;;;;;;6.57;100.00;96004.20;110543;1243;59728;-76
2023/04/01 03:46:48;;;;;;;13.40;10.50;;;;;;;6.55;100.00;96003.97;110502;1239;71427;-76
2023/04/01 03:49:18;;;;;;;13.20;10.40;;;;;;;6.54;100.00;96004.16;110368;1243;69346;-76
2023/04/01 03:51:48;;;;;;;16.20;11.50;;;;;;;6.54;100.00;96000.55;110554;1241;69226;-76
2023/04/01 03:54:19;;;;;;;14.40;10.80;;;;;;;6.54;100.00;96001.80;110637;1240;59737;-76
2023/04/01 03:56:50;;;;;;;13.70;10.90;;;;;;;6.54;100.00;95996.45;110553;1242;59672;-77
2023/04/01 03:59:21;;;;;;;14.70;11.10;;;;;;;6.53;100.00;95998.77;110383;1242;70373;-77
2023/04/01 04:01:50;;;;;;;13.50;10.80;;;;;;;6.53;100.00;95995.10;110535;1242;70029;-76
2023/04/01 04:04:19;;;;;;;13.20;10.60;;;;;;;6.54;100.00;95989.51;110563;1242;69202;-74
2023/04/01 04:06:49;;;;;;;16.20;12.30;;;;;;;6.51;100.00;95983.98;110527;1242;59743;-76
2023/04/01 04:09:18;;;;;;;16.00;13.90;;;;;;;6.51;100.00;95985.78;110449;1242;59667;-75
2023/04/01 04:11:49;;;;;;;18.40;14.60;;;;;;;6.49;100.00;95985.44;110365;1242;70660;-76
2023/04/01 04:14:19;;;;;;;15.70;13.60;;;;;;;6.48;100.00;95979.23;110424;1238;68558;-75
2023/04/01 04:16:48;;;;;;;15.20;12.50;;;;;;;6.49;100.00;95973.99;110608;1244;68200;-78
2023/04/01 04:19:17;;;;;;;15.90;12.20;;;;;;;6.49;100.00;95970.49;110706;1242;59743;-77
2023/04/01 04:21:46;;;;;;;18.70;12.20;;;;;;;6.51;100.00;95969.61;110297;1240;59687;-76
2023/04/01 04:24:15;;;;;;;15.20;11.80;;;;;;;6.53;100.00;95980.59;110279;1245;71983;-77
2023/04/01 04:27:04;;;;;;;17.90;14.10;;;;;;;6.53;100.00;95987.63;110552;1242;69802;-78
2023/04/01 04:29:33;;;;;;;15.10;11.90;;;;;;;6.55;100.00;95991.86;110512;1241;69301;-78
2023/04/01 04:32:02;;;;;;;17.50;15.10;;;;;;;6.57;100.00;95994.46;110571;1242;59756;-78
2023/04/01 04:34:32;;;;;;;14.60;11.80;;;;;;;6.59;100.00;95996.34;110419;1242;59672;-79
2023/04/01 04:37:01;;;;;;;15.10;12.10;;;;;;;6.61;100.00;95988.91;110420;1242;72192;-77
2023/04/01 04:39:33;;;;;;;14.60;11.20;;;;;;;6.63;100.00;95985.50;110587;1240;69793;-77
2023/04/01 04:42:02;;;;;;;17.30;11.90;;;;;;;6.66;100.00;95983.23;110381;1241;68494;-77
2023/04/01 04:44:31;;;;;;;15.90;13.30;;;;;;;6.66;100.00;95979.73;110324;1241;59682;-77
2023/04/01 04:47:01;;;;;;;14.70;10.50;;;;;;;6.67;100.00;95983.96;110573;1241;59658;-77
2023/04/01 04:49:31;;;;;;;15.80;11.60;;;;;;;6.68;100.00;95990.11;110334;1243;71705;-76
2023/04/01 04:52:00;;;;;;;12.30;9.60;;;;;;;6.69;100.00;95992.63;110385;1245;68489;-82
2023/04/01 04:54:29;;;;;;;11.00;8.50;;;;;;;6.71;100.00;96001.20;110346;1244;69857;-81
2023/04/01 04:57:00;;;;;;;12.80;10.40;;;;;;;6.71;100.00;96000.98;110288;1242;59752;-81
2023/04/01 04:59:31;;;;;;;14.40;10.70;;;;;;;6.73;100.00;96007.24;110329;1242;59634;-80
2023/04/01 05:02:07;;;;;;;13.50;11.40;;;;;;;6.74;100.00;96004.56;110555;1242;69675;-79
2023/04/01 05:04:36;;;;;;;13.30;11.10;;;;;;;6.74;100.00;96000.02;110624;1242;69876;-81
2023/04/01 05:07:06;;;;;;;13.60;10.10;;;;;;;6.75;100.00;95997.55;110288;1241;69241;-81
2023/04/01 05:09:36;;;;;;;13.80;10.20;;;;;;;6.74;100.00;95996.87;110678;1241;59689;-82
2023/04/01 05:12:05;;;;;;;15.40;12.50;;;;;;;6.75;100.00;95994.08;110294;1243;59676;-79
2023/04/01 05:14:57;;;;;;;19.70;14.00;;;;;;;6.73;100.00;95991.33;110501;1241;70435;-81
2023/04/01 05:17:26;;;;;;;17.90;13.00;;;;;;;6.72;100.00;95988.27;110655;1241;69116;-83
2023/04/01 05:19:55;;;;;;;17.40;13.20;;;;;;;6.72;100.00;95987.06;110217;1241;525947;-81
2023/04/01 05:22:24;;;;;;;17.20;12.40;;;;;;;6.72;100.00;95984.30;110267;1244;59763;-82
2023/04/01 05:24:53;;;;;;;15.80;11.90;;;;;;;6.70;100.00;95981.80;110490;1241;59740;-84
2023/04/01 05:27:23;;;;;;;16.60;12.40;;;;;;;6.66;100.00;95980.55;110417;1241;71751;-84
2023/04/01 05:29:52;;;;;;;18.30;14.20;;;;;;;6.60;100.00;95968.60;110445;1241;69666;-84
2023/04/01 05:32:50;;;;;;;16.60;14.10;;;;;;;6.53;100.00;95967.20;110577;1241;69743;-82
2023/04/01 05:35:19;;;;;;;15.30;13.00;;;;;;;6.47;100.00;95967.91;110296;1245;59684;-83
2023/04/01 05:37:48;;;;;;;17.50;13.20;;;;;;;6.47;100.00;95973.81;110364;1238;59747;-84
2023/04/01 05:40:17;;;;;;;15.40;13.20;;;;;;;6.41;100.00;95982.05;110593;1239;71427;-84
2023/04/01 05:42:45;;;;;;;17.40;13.90;;;;;;;6.39;100.00;95979.80;110433;1240;69791;-85
2023/04/01 05:45:15;;;;;;;19.80;15.80;;;;;;;6.33;100.00;95978.68;110635;1240;69730;-85
2023/04/01 05:48:03;;;;;;;19.40;15.50;;;;;;;6.29;100.00;95985.05;110490;1240;59737;-83
2023/04/01 05:50:39;;;;;;;17.50;15.20;;;;;;;6.27;100.00;95985.38;110578;1242;59694;-84
2023/04/01 05:53:08;;;;;;;19.10;15.40;;;;;;;6.23;100.00;95984.48;110408;1238;71210;-85
2023/04/01 05:55:36;;;;;;;21.60;15.70;;;;;;;6.21;100.00;95972.89;110572;1242;69195;-83
2023/04/01 05:58:05;;;;;;;16.70;13.90;;;;;;;6.20;100.00;95971.58;110331;1245;68311;-74
2023/04/01 06:00:34;;;;;;;18.30;15.00;;;;;;;6.20;100.00;95976.42;110389;1242;59673;-77
2023/04/01 06:03:03;;;;;;;19.50;14.70;;;;;;;6.20;100.00;95978.83;110374;1243;60179;-78
2023/04/01 06:05:41;;;;;;;18.20;14.90;;;;;;;6.22;100.00;95979.71;110482;1241;72307;-77
2023/04/01 06:08:16;;;;;;;17.20;13.80;;;;;;;6.24;100.00;95975.95;110587;1240;69405;-77
2023/04/01 06:11:23;;;;;;;19.40;13.40;;;;;;;6.27;100.00;95983.34;110561;1248;69265;-77
2023/04/01 06:14:00;;;;;;;19.10;15.00;;;;;;;6.31;100.00;95993.17;110168;1245;59785;-75
2023/04/01 06:16:35;;;;;;;19.00;15.40;;;;;;;6.34;100.00;95991.08;110512;1242;59685;-74
2023/04/01 06:19:19;;;;;;;21.10;17.40;;;;;;;6.34;100.00;95991.41;110393;1246;70652;-75
2023/04/01 06:22:13;;;;;;;19.40;16.10;;;;;;;6.34;100.00;95994.85;110513;1242;69719;-73
2023/04/01 06:25:00;;;;;;;21.80;17.20;;;;;;;6.36;100.00;95994.02;110552;1242;69062;-78
2023/04/01 06:27:51;;;;;;;19.70;16.00;;;;;;;6.39;100.00;95988.43;110422;1238;59695;-77
2023/04/01 06:30:35;;;;;;;19.00;14.90;;;;;;;6.39;100.00;95983.38;110511;1241;59740;-76
2023/04/01 06:33:29;;;;;;;18.10;14.50;;;;;;;6.43;100.00;95979.30;110628;1238;70628;-75
2023/04/01 06:36:23;;;;;;;18.60;13.70;;;;;;;6.48;100.00;95969.88;110689;1241;70260;-76
2023/04/01 06:39:20;;;;;;;18.20;13.80;;;;;;;6.58;100.00;95964.77;110593;1241;69065;-75
2023/04/01 06:42:15;;;;;;;20.90;15.30;;;;;;;6.68;100.00;95966.06;110412;1242;59692;-76
2023/04/01 06:45:20;;;;;;;24.50;18.10;;;;;;;6.77;100.00;95964.62;110419;1242;59760;-77
2023/04/01 06:48:17;;;;;;;22.60;17.60;;;;;;;6.90;100.00;95961.84;110512;1241;70657;-74
2023/04/01 06:51:31;;;;;;;21.00;16.40;;;;;;;7.07;100.00;95962.75;110523;1241;68282;-77
2023/04/01 06:54:34;;;;;;;17.50;14.00;;;;;;;7.21;100.00;95973.52;110530;1241;68717;-82
2023/04/01 06:57:19;;;;;;;22.00;17.10;;;;;;;7.26;100.00;95972.45;110712;1239;59727;-82
2023/04/01 06:59:48;;;;;;;20.30;16.70;;;;;;;7.26;100.00;95962.71;110408;1242;59657;-84
2023/04/01 07:02:43;;;;;;;26.30;22.50;;;;;;;7.25;100.00;95958.11;110485;1238;71946;-80
2023/04/01 07:05:14;;;;;;;24.60;21.00;;;;;;;7.27;100.00;95952.45;110680;1241;68287;-80
2023/04/01 07:07:49;;;;;;;20.80;16.90;;;;;;;7.27;100.00;95955.05;110416;1242;68979;-77
2023/04/01 07:10:25;;;;;;;22.00;18.30;;;;;;;7.28;100.00;95957.40;110500;1242;59751;-79
2023/04/01 07:13:28;;;;;;;26.30;20.50;;;;;;;7.28;100.00;95961.70;110571;1242;59667;-79
2023/04/01 07:16:12;;;;;;;23.20;20.20;;;;;;;7.28;100.00;95964.10;110372;1242;71370;-78
2023/04/01 07:18:58;;;;;;;24.20;21.10;;;;;;;7.31;100.00;95967.66;110553;1238;67424;-75
2023/04/01 07:21:44;;;;;;;27.60;22.50;;;;;;;7.37;100.00;95972.73;110504;1241;67800;-76
2023/04/01 07:24:34;;;;;;;34.70;25.90;;;;;;;7.40;100.00;95971.83;110714;1240;59675;-75
2023/04/01 07:27:10;;;;;;;28.50;24.80;;;;;;;7.44;100.00;95962.82;110376;1239;59724;-76
2023/04/01 07:29:40;;;;;;;31.20;25.60;;;;;;;7.48;100.00;95955.20;110537;1242;71993;-76
2023/04/01 07:32:16;;;;;;;;;;;;;;;7.53;100.00;95950.80;110456;1244;68337;-76
2023/04/01 07:34:56;;;;;;;29.20;22.70;;;;;;;7.61;100.00;95946.81;110601;1238;69100;-79
2023/04/01 07:37:44;;;;;;;27.40;22.20;;;;;;;7.70;100.00;95939.83;110474;1242;59662;-77
2023/04/01 07:40:29;;;;;;;24.50;18.80;;;;;;;7.78;100.00;95938.23;110532;1241;59689;-77
2023/04/01 07:43:05;;;;;;;21.60;17.70;;;;;;;7.86;100.00;95936.70;110255;1241;71366;-77
2023/04/01 07:45:50;;;;;;;16.00;13.60;;;;;;;7.94;100.00;95933.30;110543;1241;69718;-76
2023/04/01 07:48:19;;;;;;;22.00;17.70;;;;;;;7.98;100.00;95935.36;110746;1241;70227;-77
2023/04/01 07:51:03;;;;;;;21.90;17.10;;;;;;;7.99;100.00;95938.74;110256;1241;59767;-77
2023/04/01 07:54:01;;;;;;;21.40;17.30;;;;;;;8.00;100.00;95936.40;110301;1242;59752;-76
2023/04/01 07:57:05;;;;;;;26.00;19.40;;;;;;;8.01;100.00;95938.02;110571;1240;71232;-76
2023/04/01 08:00:00;;;;;;;28.30;19.50;;;;;;;8.03;100.00;95932.84;110679;1240;69824;-77
2023/04/01 08:02:52;;;;;;;33.10;24.40;;;;;;;8.02;100.00;95937.61;110601;1241;69679;-76
2023/04/01 08:05:55;;;;;;;33.30;23.10;;;;;;;8.02;100.00;95938.76;110659;1241;59721;-76
2023/04/01 08:08:59;;;;;;;30.20;20.10;;;;;;;8.05;100.00;95933.88;110031;1240;59761;-77
2023/04/01 08:11:53;;;;;;;25.40;18.50;;;;;;;8.08;100.00;95928.40;110254;1242;71321;-77
2023/04/01 08:15:04;;;;;;;21.80;16.20;;;;;;;8.11;100.00;95924.84;110508;1240;69105;-73
2023/04/01 08:17:50;;;;;;;;;;;;;;;8.16;100.00;95918.29;110521;1239;69095;-79
2023/04/01 08:20:28;;;;;;;20.70;16.00;;;;;;;8.25;100.00;95921.40;110626;1240;59780;-76
2023/04/01 08:23:05;;;;;;;19.60;15.10;;;;;;;8.31;100.00;95923.61;110371;1244;59679;-75
2023/04/01 08:25:40;;;;;;;17.90;13.80;;;;;;;8.36;100.00;95922.84;110559;1241;71405;-78
2023/04/01 08:28:16;;;;;;;16.80;12.50;;;;;;;8.45;100.00;95919.15;110256;1241;68501;-78
2023/04/01 08:31:00;;;;;;;17.30;13.60;;;;;;;8.55;100.00;95919.85;110359;1241;69585;-76
2023/04/01 08:33:31;;;;;;;16.00;12.20;;;;;;;8.65;100.00;95914.38;110454;1244;59730;-73
2023/04/01 08:36:16;;;;;;;13.90;11.30;;;;;;;8.75;100.00;95910.98;110560;1241;59675;-76
2023/04/01 08:39:02;;;;;;;13.30;11.00;;;;;;;8.83;100.00;95905.33;110717;1238;72199;-77
2023/04/01 08:41:53;;;;;;;16.90;12.00;;;;;;;8.92;100.00;95912.02;110524;1241;67404;-78
2023/04/01 08:44:46;;;;;;;13.30;10.60;;;;;;;8.94;100.00;95917.17;110770;1241;69097;-77
2023/04/01 08:47:40;;;;;;;10.00;8.60;;;;;;;8.94;99.97;95923.30;110464;1244;59715;-77
2023/04/01 08:50:46;;;;;;;9.80;8.60;;;;;;;9.02;100.00;95920.47;110655;1241;59678;-77
2023/04/01 08:53:24;;;;;;;10.90;9.70;;;;;;;9.04;100.00;95916.46;110425;1242;71812;-76
2023/04/01 08:56:14;;;;;;;10.60;9.00;;;;;;;9.08;100.00;95911.73;110668;1241;69094;-77
2023/04/01 08:59:14;;;;;;;11.00;9.30;;;;;;;9.20;100.00;95910.98;110593;1247;69698;-78
2023/04/01 09:01:59;;;;;;;16.20;13.30;;;;;;;9.31;100.00;95907.30;110507;1240;59661;-77
2023/04/01 09:05:06;;;;;;;19.80;16.10;;;;;;;9.41;100.00;95900.26;110479;1240;60036;-77
2023/04/01 09:07:53;;;;;;;19.20;15.70;;;;;;;9.48;100.00;95899.42;110427;1241;70164;-78
2023/04/01 09:10:36;;;;;;;26.10;22.80;;;;;;;9.55;100.00;95904.90;110426;1241;69066;-77
2023/04/01 09:13:42;;;;;;;21.10;16.50;;;;;;;9.55;99.92;95899.48;110494;1242;69135;-77
2023/04/01 09:16:36;;;;;;;19.10;14.90;;;;;;;9.61;99.59;95896.83;110438;1238;59692;-77
2023/04/01 09:19:05;;;;;;;15.60;11.80;;;;;;;9.65;99.58;95892.77;110661;1241;59727;-78
2023/04/01 09:21:43;;;;;;;16.70;13.90;;;;;;;9.71;99.32;95888.81;110317;1242;71436;-77
2023/04/01 09:24:21;;;;;;;15.70;13.40;;;;;;;9.70;98.42;95890.27;110446;1241;69703;-78
2023/04/01 09:27:02;;;;;;;13.30;11.90;;;;;;;9.70;97.35;95885.33;110372;1238;69098;-77
2023/04/01 09:30:08;;;;;;;13.20;10.20;;;;;;;9.77;97.80;95881.29;110493;1241;59642;-77
2023/04/01 09:32:40;;;;;;;13.10;11.10;;;;;;;9.84;99.37;95885.65;110655;1241;59667;-75
2023/04/01 09:36:02;;;;;;;14.80;11.10;;;;;;;9.90;99.36;95887.18;110529;1243;71272;-78
2023/04/01 09:38:57;;;;;;;15.30;13.20;;;;;;;9.94;98.97;95883.49;110467;1241;69114;-77
2023/04/01 09:41:26;;;;;;;14.50;12.80;;;;;;;9.89;99.00;95881.29;110469;1241;69585;-77
2023/04/01 09:44:30;;;;;;;13.70;11.80;;;;;;;9.86;98.63;95878.48;110469;1242;59754;-78
2023/04/01 09:47:35;;;;;;;13.70;11.20;;;;;;;9.81;98.93;95879.16;110479;1238;59742;-77
2023/04/01 09:50:05;;;;;;;17.10;12.30;;;;;;;9.78;98.85;95875.60;110454;1247;70497;-76
2023/04/01 09:52:37;;;;;;;14.10;11.40;;;;;;;9.80;98.89;95871.25;110660;1248;70100;-77
2023/04/01 09:55:57;;;;;;;15.00;12.00;;;;;;;9.84;98.91;95870.66;110812;1240;69245;-78
2023/04/01 09:58:35;;;;;;;15.20;12.10;;;;;;;9.90;99.08;95862.64;110704;1241;59808;-77
2023/04/01 10:01:38;;;;;;;12.70;10.60;;;;;;;9.95;98.42;95857.30;110561;1241;59674;-78
2023/04/01 10:04:40;;;;;;;14.10;10.90;;;;;;;9.99;96.91;95855.02;110635;1240;71870;-75
2023/04/01 10:07:12;;;;;;;12.50;10.20;;;;;;;10.03;95.68;95853.59;110480;1240;68114;-77
2023/04/01 10:10:05;;;;;;;12.00;10.30;;;;;;;10.08;95.81;95852.54;110372;1242;69697;-77
2023/04/01 10:13:01;;;;;;;16.60;12.20;;;;;;;10.11;95.83;95852.81;110646;1242;59708;-77
2023/04/01 10:15:55;;;;;;;15.10;12.10;;;;;;;10.14;96.08;95854.61;110733;1241;59694;-77
2023/04/01 10:18:43;;;;;;;11.80;10.00;;;;;;;10.16;95.25;95849.54;110362;1238;71818;-78
2023/04/01 10:21:50;;;;;;;12.40;10.50;;;;;;;10.16;94.69;95845.83;110528;1241;68628;-76
2023/04/01 10:24:37;;;;;;;13.00;10.90;;;;;;;10.18;94.84;95841.16;110682;1241;69267;-76
2023/04/01 10:27:22;;;;;;;13.20;11.50;;;;;;;10.14;93.77;95844.64;110550;1241;59743;-77
2023/04/01 10:30:29;;;;;;;13.50;10.60;;;;;;;10.17;94.00;95843.73;110024;1240;59779;-76
2023/04/01 10:33:06;;;;;;;15.00;12.10;;;;;;;10.17;93.98;95843.75;110389;1242;71304;-77
2023/04/01 10:36:08;;;;;;;14.80;11.80;;;;;;;10.15;94.04;95844.55;110432;1245;69683;-78
2023/04/01 10:39:34;;;;;;;14.10;11.10;;;;;;;10.19;94.14;95842.92;110431;1242;69123;-77
2023/04/01 10:42:56;;;;;;;14.50;12.50;;;;;;;10.18;93.19;95845.69;109696;1249;59698;-78
2023/04/01 10:46:18;;;;;;;14.40;12.90;;;;;;;10.13;93.63;95848.06;109794;1247;59756;-77
2023/04/01 10:49:17;;;;;;;14.20;12.70;;;;;;;10.08;93.99;95852.17;110480;1242;71802;-78
2023/04/01 10:51:59;;;;;;;14.40;12.60;;;;;;;10.03;96.09;95855.13;110535;1238;70027;-77
2023/04/01 10:55:00;;;;;;;;;;;;;;;9.98;95.56;95852.32;109785;1247;68332;-78
2023/04/01 10:57:54;;;;;;;15.50;12.60;;;;;;;9.91;95.34;95851.75;110391;1240;59692;-78
2023/04/01 11:00:54;;;;;;;12.60;10.60;;;;;;;9.89;94.93;95850.54;110436;1241;59684;-78
2023/04/01 11:03:54;;;;;;;14.40;12.30;;;;;;;9.87;94.39;95847.10;109918;1248;71988;-77
2023/04/01 11:07:07;;;;;;;14.40;12.50;;;;;;;9.84;94.49;95842.89;110611;1238;69089;-77
2023/04/01 11:09:58;;;;;;;14.00;12.10;;;;;;;9.79;95.88;95844.52;110635;1241;68407;-77
2023/04/01 11:12:26;;;;;;;;;;;;;;;9.76;96.72;95842.06;110665;1241;59730;-77
2023/04/01 11:15:14;;;;;;;15.00;11.70;;;;;;;9.72;97.21;95839.77;110319;1244;59659;-77
2023/04/01 11:18:15;;;;;;;12.70;10.20;;;;;;;9.66;99.96;95841.23;110358;1238;71451;-78
2023/04/01 11:21:02;;;;;;;12.60;11.20;;;;;;;9.63;100.00;95837.81;110392;1242;69332;-77
2023/04/01 11:24:02;;;;;;;13.10;10.80;;;;;;;9.60;100.00;95836.08;110596;1238;68358;-78
2023/04/01 11:27:11;;;;;;;11.70;9.80;;;;;;;9.58;100.00;95834.13;110502;1241;59738;-76
2023/04/01 11:29:52;;;;;;;10.90;9.50;;;;;;;9.57;100.00;95835.42;110580;1241;59669;-78
2023/04/01 11:32:54;;;;;;;24.10;19.20;;;;;;;9.57;100.00;95834.54;110684;1238;71957;-77
2023/04/01 11:36:07;;;;;;;32.50;26.60;;;;;;;9.54;100.00;95838.52;110526;1238;68467;-78
2023/04/01 11:38:45;;;;;;;30.40;25.30;;;;;;;9.46;100.00;95835.79;110237;1241;69255;-78
2023/04/01 11:41:51;;;;;;;36.60;30.60;;;;;;;9.38;100.00;95834.66;110593;1238;59763;-79
2023/04/01 11:44:43;;;;;;;43.20;32.80;;;;;;;9.32;100.00;95836.07;110596;1246;59750;-84
2023/04/01 11:47:36;;;;;;;41.80;32.90;;;;;;;9.30;100.00;95831.38;110659;1241;71380;-82
2023/04/01 11:50:23;;;;;;;38.10;31.80;;;;;;;9.30;100.00;95832.28;110777;1238;67617;-84
2023/04/01 11:53:05;;;;;;;34.60;27.60;;;;;;;9.31;100.00;95825.19;110742;1238;69135;-83
2023/04/01 11:55:45;;;;;;;36.10;26.60;;;;;;;9.36;100.00;95827.38;110565;1241;60064;-82
2023/04/01 11:58:34;;;;;;;32.00;23.90;;;;;;;9.44;100.00;95829.21;110573;1240;59734;-83
2023/04/01 12:01:37;;;;;;;26.30;22.50;;;;;;;9.53;100.00;95833.23;110567;1238;71341;-83
2023/04/01 12:04:30;;;;;;;29.20;24.20;;;;;;;9.62;100.00;95830.50;110597;1238;69060;-82
2023/04/01 12:07:41;;;;;;;24.00;20.50;;;;;;;9.68;100.00;95829.67;110423;1241;69086;-83
2023/04/01 12:10:28;;;;;;;20.90;17.50;;;;;;;9.79;100.00;95825.46;110568;1240;59658;-83
2023/04/01 12:13:31;;;;;;;16.50;14.30;;;;;;;9.85;100.00;95818.57;110592;1240;59754;-84
2023/04/01 12:16:16;;;;;;;12.70;10.60;;;;;;;9.94;100.00;95819.27;110564;1241;71233;-83
2023/04/01 12:18:51;;;;;;;13.00;11.40;;;;;;;10.03;99.89;95817.20;110579;1242;68346;-77